createdAt,value
2023-02-21T00:02:35.610Z,53.06
2023-02-21T00:05:22.342Z,53.16
2023-02-21T00:08:09.424Z,53.60
2023-02-21T00:10:56.021Z,54.13
2023-02-21T00:13:42.640Z,54.07
2023-02-21T00:16:33.867Z,53.95
2023-02-21T00:19:20.969Z,54.06
2023-02-21T00:22:08.200Z,53.76
2023-02-21T00:24:54.547Z,53.68
2023-02-21T00:27:42.933Z,53.81
2023-02-21T00:30:31.284Z,53.23
2023-02-21T00:33:18.420Z,53.06
2023-02-21T00:36:05.113Z,53.12
2023-02-21T00:38:52.229Z,53.08
2023-02-21T00:41:40.775Z,52.98
2023-02-21T00:44:27.796Z,52.85
2023-02-21T00:47:14.407Z,52.69
2023-02-21T00:50:01.181Z,52.69
2023-02-21T00:52:47.930Z,52.79
2023-02-21T00:55:34.845Z,52.21
2023-02-21T00:58:21.544Z,52.13
2023-02-21T01:01:08.906Z,52.33
2023-02-21T01:03:55.570Z,52.00
2023-02-21T01:06:42.189Z,52.17
2023-02-21T01:09:28.990Z,52.00
2023-02-21T01:12:15.902Z,51.50
2023-02-21T01:15:02.722Z,51.57
2023-02-21T01:17:49.636Z,51.31
2023-02-21T01:20:36.346Z,51.54
2023-02-21T01:23:24.284Z,51.45
2023-02-21T01:26:11.094Z,51.22
2023-02-21T01:28:57.703Z,51.20
2023-02-21T01:31:44.621Z,51.13
2023-02-21T01:34:35.766Z,51.18
2023-02-21T01:37:22.743Z,51.13
2023-02-21T01:40:09.649Z,50.84
2023-02-21T01:42:56.364Z,50.48
2023-02-21T01:45:43.175Z,50.89
2023-02-21T01:48:38.593Z,50.46
2023-02-21T01:51:29.404Z,50.34
2023-02-21T01:54:16.610Z,50.39
2023-02-21T01:57:04.860Z,50.31
2023-02-21T01:59:51.979Z,50.16
2023-02-21T02:03:11.362Z,50.14
2023-02-21T02:05:59.800Z,50.12
2023-02-21T02:08:48.722Z,50.10
2023-02-21T02:11:43.746Z,50.24
2023-02-21T02:14:37.884Z,50.31
2023-02-21T02:17:32.619Z,50.19
2023-02-21T02:20:38.607Z,50.47
2023-02-21T02:23:28.083Z,50.30
2023-02-21T02:26:11.106Z,50.33
2023-02-21T02:28:57.462Z,50.19
2023-02-21T02:31:36.573Z,49.84
2023-02-21T02:34:23.550Z,50.04
2023-02-21T02:37:27.058Z,50.21
2023-02-21T02:40:19.291Z,50.21
2023-02-21T02:43:00.481Z,50.00
2023-02-21T02:45:43.802Z,50.05
2023-02-21T02:48:15.042Z,50.16
2023-02-21T02:50:47.543Z,50.37
2023-02-21T02:53:27.528Z,50.32
2023-02-21T02:56:04.664Z,50.25
2023-02-21T02:58:44.820Z,50.54
2023-02-21T03:01:28.377Z,50.84
2023-02-21T03:04:11.765Z,51.05
2023-02-21T03:06:58.574Z,51.22
2023-02-21T03:09:42.350Z,51.43
2023-02-21T03:12:16.960Z,51.62
2023-02-21T03:14:55.776Z,52.22
2023-02-21T03:17:26.852Z,52.00
2023-02-21T03:19:58.012Z,52.08
2023-02-21T03:22:30.733Z,52.42
2023-02-21T03:25:01.169Z,52.23
2023-02-21T03:27:31.265Z,52.23
2023-02-21T03:30:14.471Z,52.36
2023-02-21T03:32:47.812Z,52.47
2023-02-21T03:35:17.006Z,52.46
2023-02-21T03:37:47.846Z,52.58
2023-02-21T03:40:20.250Z,52.55
2023-02-21T03:42:52.992Z,52.42
2023-02-21T03:45:22.205Z,52.69
2023-02-21T03:48:03.837Z,52.94
2023-02-21T03:50:32.171Z,52.81
2023-02-21T03:53:00.467Z,52.80
2023-02-21T03:55:28.715Z,53.11
2023-02-21T03:57:57.201Z,52.80
2023-02-21T04:00:25.646Z,52.90
2023-02-21T04:02:54.440Z,52.70
2023-02-21T04:05:31.341Z,53.08
2023-02-21T04:07:59.728Z,52.80
2023-02-21T04:10:28.173Z,52.84
2023-02-21T04:12:56.895Z,53.08
2023-02-21T04:15:25.581Z,53.10
2023-02-21T04:17:53.681Z,53.30
2023-02-21T04:20:22.596Z,53.13
2023-02-21T04:23:03.067Z,53.00
2023-02-21T04:25:31.998Z,53.26
2023-02-21T04:28:05.499Z,52.87
2023-02-21T04:30:33.443Z,53.23
2023-02-21T04:33:03.859Z,53.03
2023-02-21T04:35:32.146Z,53.16
2023-02-21T04:38:04.140Z,53.24
2023-02-21T04:40:32.322Z,53.35
2023-02-21T04:43:00.581Z,53.39
2023-02-21T04:45:29.096Z,53.77
2023-02-21T04:47:57.033Z,53.40
2023-02-21T04:50:25.107Z,53.45
2023-02-21T04:52:53.399Z,53.58
2023-02-21T04:55:21.480Z,53.58
2023-02-21T04:57:49.844Z,53.72
2023-02-21T05:00:17.966Z,53.81
2023-02-21T05:02:46.280Z,53.97
2023-02-21T05:05:14.316Z,53.65
2023-02-21T05:07:43.253Z,53.83
2023-02-21T05:10:12.409Z,53.66
2023-02-21T05:12:40.423Z,53.67
2023-02-21T05:15:10.260Z,53.68
2023-02-21T05:17:38.503Z,53.83
2023-02-21T05:20:11.913Z,53.85
2023-02-21T05:22:41.514Z,53.75
2023-02-21T05:25:20.443Z,54.05
2023-02-21T05:27:49.526Z,53.90
2023-02-21T05:30:21.547Z,54.22
2023-02-21T05:32:50.585Z,53.71
2023-02-21T05:35:19.178Z,54.04
2023-02-21T05:37:47.269Z,53.70
2023-02-21T05:40:16.882Z,54.08
2023-02-21T05:42:45.135Z,54.02
2023-02-21T05:45:13.197Z,54.05
2023-02-21T05:47:41.278Z,53.87
2023-02-21T05:50:09.555Z,53.99
2023-02-21T05:52:37.506Z,53.87
2023-02-21T05:55:06.109Z,53.88
2023-02-21T05:57:39.447Z,54.27
2023-02-21T06:00:08.394Z,53.77
2023-02-21T06:02:39.945Z,54.07
2023-02-21T06:05:08.429Z,53.96
2023-02-21T06:07:37.212Z,53.70
2023-02-21T06:10:05.994Z,53.75
2023-02-21T06:12:34.041Z,53.63
2023-02-21T06:15:02.565Z,53.60
2023-02-21T06:17:30.617Z,53.57
2023-02-21T06:19:58.750Z,53.90
2023-02-21T06:22:26.767Z,53.70
2023-02-21T06:24:55.480Z,53.39
2023-02-21T06:27:24.032Z,53.33
2023-02-21T06:29:52.336Z,53.12
2023-02-21T06:32:20.526Z,53.48
2023-02-21T06:34:48.576Z,53.06
2023-02-21T06:37:19.312Z,53.06
2023-02-21T06:39:47.377Z,52.80
2023-02-21T06:42:17.394Z,52.76
2023-02-21T06:44:46.829Z,52.75
2023-02-21T06:47:15.899Z,52.56
2023-02-21T06:49:44.167Z,52.56
2023-02-21T06:52:12.375Z,52.46
2023-02-21T06:54:43.134Z,52.18
2023-02-21T06:57:11.243Z,51.78
2023-02-21T06:59:39.430Z,51.83
2023-02-21T07:02:15.548Z,51.04
2023-02-21T07:04:43.619Z,51.16
2023-02-21T07:07:11.939Z,50.72
2023-02-21T07:09:40.008Z,50.27
2023-02-21T07:12:09.099Z,50.12
2023-02-21T07:14:37.212Z,50.07
2023-02-21T07:17:05.213Z,49.98
2023-02-21T07:19:33.207Z,49.31
2023-02-21T07:22:01.277Z,47.50
2023-02-21T07:24:29.252Z,46.64
2023-02-21T07:26:57.470Z,46.09
2023-02-21T07:29:25.864Z,45.99
2023-02-21T07:31:54.151Z,45.70
2023-02-21T07:34:23.176Z,45.40
2023-02-21T07:36:51.267Z,45.29
2023-02-21T07:39:19.216Z,45.58
2023-02-21T07:41:47.398Z,45.73
2023-02-21T07:44:23.075Z,46.05
2023-02-21T07:46:51.217Z,46.36
2023-02-21T07:49:19.430Z,46.42
2023-02-21T07:51:47.977Z,46.34
2023-02-21T07:54:16.962Z,46.46
2023-02-21T07:56:49.868Z,46.38
2023-02-21T07:59:17.916Z,46.92
2023-02-21T08:01:47.748Z,46.99
2023-02-21T08:04:20.479Z,46.78
2023-02-21T08:06:49.520Z,46.43
2023-02-21T08:09:17.884Z,46.39
2023-02-21T08:11:45.739Z,46.17
2023-02-21T08:14:13.812Z,45.63
2023-02-21T08:16:41.897Z,45.21
2023-02-21T08:19:10.388Z,44.96
2023-02-21T08:21:38.761Z,44.33
2023-02-21T08:24:06.937Z,43.57
2023-02-21T08:26:35.129Z,42.95
2023-02-21T08:29:04.098Z,43.13
2023-02-21T08:31:36.185Z,42.85
2023-02-21T08:34:05.979Z,42.02
2023-02-21T08:36:37.887Z,41.86
2023-02-21T08:39:07.480Z,41.15
2023-02-21T08:41:42.410Z,41.73
2023-02-21T08:44:12.911Z,41.19
2023-02-21T08:46:41.070Z,40.89
2023-02-21T08:49:10.150Z,40.36
2023-02-21T08:51:39.288Z,40.22
2023-02-21T08:54:07.969Z,40.05
2023-02-21T08:56:36.042Z,40.07
2023-02-21T08:59:04.956Z,39.43
2023-02-21T09:01:35.562Z,39.45
2023-02-21T09:04:05.381Z,39.81
2023-02-21T09:06:33.488Z,39.28
2023-02-21T09:09:01.520Z,39.54
2023-02-21T09:11:29.790Z,40.07
2023-02-21T09:13:57.977Z,40.54
2023-02-21T09:16:26.095Z,40.62
2023-02-21T09:18:59.383Z,41.12
2023-02-21T09:21:28.008Z,41.67
2023-02-21T09:23:57.012Z,42.03
2023-02-21T09:26:26.413Z,42.19
2023-02-21T09:28:54.481Z,42.65
2023-02-21T09:31:22.785Z,42.96
2023-02-21T09:33:50.829Z,42.75
2023-02-21T09:36:23.752Z,42.79
2023-02-21T09:38:52.091Z,42.69
2023-02-21T09:41:20.431Z,42.87
2023-02-21T09:43:54.284Z,42.82
2023-02-21T09:46:46.822Z,43.10
2023-02-21T09:49:30.572Z,42.94
2023-02-21T09:52:01.302Z,42.80
2023-02-21T09:54:34.210Z,42.34
2023-02-21T09:57:05.936Z,42.35
2023-02-21T09:59:34.106Z,42.53
2023-02-21T10:02:11.196Z,42.29
2023-02-21T10:04:42.275Z,42.14
2023-02-21T10:07:19.213Z,42.45
2023-02-21T10:09:56.307Z,42.08
2023-02-21T10:12:30.115Z,42.26
2023-02-21T10:15:16.528Z,41.95
2023-02-21T10:17:54.230Z,41.82
2023-02-21T10:20:40.097Z,41.76
2023-02-21T10:23:31.704Z,41.64
2023-02-21T10:26:07.519Z,41.24
2023-02-21T10:28:36.383Z,40.93
2023-02-21T10:31:42.456Z,40.94
2023-02-21T10:34:24.217Z,40.67
2023-02-21T10:36:55.040Z,40.38
2023-02-21T10:39:50.373Z,40.15
2023-02-21T10:42:28.932Z,40.28
2023-02-21T10:44:57.502Z,40.32
2023-02-21T10:47:58.514Z,39.88
2023-02-21T10:50:41.586Z,38.88
2023-02-21T10:53:22.223Z,39.12
2023-02-21T10:56:19.088Z,38.92
2023-02-21T10:58:57.270Z,37.90
2023-02-21T11:01:30.474Z,37.64
2023-02-21T11:04:21.648Z,37.46
2023-02-21T11:06:55.894Z,36.97
2023-02-21T11:09:27.028Z,36.47
2023-02-21T11:12:17.109Z,35.85
2023-02-21T11:14:50.960Z,35.10
2023-02-21T11:17:25.558Z,33.89
2023-02-21T11:19:54.744Z,32.12
2023-02-21T11:22:37.461Z,30.38
2023-02-21T11:25:18.230Z,27.47
2023-02-21T11:28:18.350Z,27.26
2023-02-21T11:31:23.558Z,25.86
2023-02-21T11:33:58.651Z,23.48
2023-02-21T11:36:30.666Z,23.32
2023-02-21T11:39:01.466Z,23.42
2023-02-21T11:41:46.398Z,22.48
2023-02-21T11:44:40.127Z,22.17
2023-02-21T11:47:23.308Z,22.12
2023-02-21T11:50:16.140Z,21.10
2023-02-21T11:52:56.921Z,20.95
2023-02-21T11:55:26.582Z,21.25
2023-02-21T11:58:23.870Z,21.31
2023-02-21T12:01:05.885Z,21.08
2023-02-21T12:03:53.901Z,21.05
2023-02-21T12:06:36.029Z,21.20
2023-02-21T12:09:32.817Z,21.87
2023-02-21T12:12:19.796Z,22.13
2023-02-21T12:15:02.911Z,21.85
2023-02-21T12:17:42.965Z,22.33
2023-02-21T12:20:39.507Z,21.90
2023-02-21T12:23:18.029Z,22.52
2023-02-21T12:26:02.391Z,22.40
2023-02-21T12:28:55.419Z,22.74
2023-02-21T12:32:02.302Z,22.98
2023-02-21T12:34:44.393Z,23.33
2023-02-21T12:37:23.832Z,23.49
2023-02-21T12:40:19.281Z,23.68
2023-02-21T12:43:05.154Z,23.97
2023-02-21T12:45:49.099Z,24.21
2023-02-21T12:48:17.063Z,24.04
2023-02-21T12:50:58.049Z,23.75
2023-02-21T12:53:41.519Z,23.60
2023-02-21T12:56:21.147Z,23.38
2023-02-21T12:59:06.498Z,23.36
2023-02-21T13:01:38.202Z,23.79
2023-02-21T13:04:25.062Z,24.30
2023-02-21T13:07:19.360Z,25.46
2023-02-21T13:09:59.608Z,26.31
2023-02-21T13:12:49.289Z,25.45
2023-02-21T13:15:26.052Z,25.37
2023-02-21T13:18:21.995Z,26.16
2023-02-21T13:20:57.845Z,26.44
2023-02-21T13:23:51.888Z,26.44
2023-02-21T13:26:38.111Z,26.51
2023-02-21T13:29:18.262Z,26.94
2023-02-21T13:31:47.803Z,28.04
2023-02-21T13:34:24.336Z,29.52
2023-02-21T13:36:53.057Z,30.67
2023-02-21T13:39:32.332Z,32.49
2023-02-21T13:42:11.511Z,33.59
2023-02-21T13:44:44.035Z,34.32
2023-02-21T13:47:23.624Z,35.49
2023-02-21T13:49:55.802Z,36.41
2023-02-21T13:52:33.189Z,36.81
2023-02-21T13:55:16.920Z,37.27
2023-02-21T13:57:58.308Z,38.06
2023-02-21T14:00:27.105Z,38.47
2023-02-21T14:03:07.658Z,38.84
2023-02-21T14:05:45.184Z,39.48
2023-02-21T14:08:22.332Z,39.49
2023-02-21T14:11:03.097Z,40.04
2023-02-21T14:13:54.852Z,39.65
2023-02-21T14:16:32.823Z,39.69
2023-02-21T14:19:08.598Z,38.25
2023-02-21T14:21:41.693Z,37.35
2023-02-21T14:24:09.746Z,37.44
2023-02-21T14:26:40.799Z,37.92
2023-02-21T14:29:08.852Z,38.26
2023-02-21T14:31:50.614Z,39.34
2023-02-21T14:34:33.854Z,40.15
2023-02-21T14:37:34.496Z,40.61
2023-02-21T14:40:11.174Z,41.05
2023-02-21T14:42:45.303Z,42.07
2023-02-21T14:45:14.307Z,42.98
2023-02-21T14:47:58.050Z,43.36
2023-02-21T14:50:43.823Z,43.47
2023-02-21T14:53:42.465Z,44.12
2023-02-21T14:56:32.603Z,44.39
2023-02-21T14:59:37.633Z,45.01
2023-02-21T15:02:23.991Z,44.80
2023-02-21T15:05:04.296Z,44.82
2023-02-21T15:07:53.252Z,45.08
2023-02-21T15:10:21.627Z,45.97
2023-02-21T15:12:58.957Z,45.86
2023-02-21T15:15:42.437Z,46.18
2023-02-21T15:18:51.177Z,46.23
2023-02-21T15:21:20.797Z,46.44
2023-02-21T15:24:01.664Z,46.36
2023-02-21T15:26:32.422Z,46.92
2023-02-21T15:29:12.356Z,47.07
2023-02-21T15:32:00.298Z,47.23
2023-02-21T15:34:43.149Z,47.27
2023-02-21T15:37:29.809Z,47.66
2023-02-21T15:40:05.445Z,48.06
2023-02-21T15:42:35.160Z,48.06
2023-02-21T15:45:08.087Z,48.52
2023-02-21T15:47:36.823Z,48.61
2023-02-21T15:50:31.327Z,48.75
2023-02-21T15:53:13.499Z,48.54
2023-02-21T15:55:42.439Z,48.43
2023-02-21T15:58:27.910Z,48.79
2023-02-21T16:01:10.032Z,48.67
2023-02-21T16:03:40.954Z,49.07
2023-02-21T16:06:14.975Z,49.05
2023-02-21T16:09:28.115Z,48.96
2023-02-21T16:12:18.785Z,49.08
2023-02-21T16:14:55.373Z,49.29
2023-02-21T16:17:38.429Z,49.15
2023-02-21T16:20:15.128Z,49.17
2023-02-21T16:23:06.778Z,49.42
2023-02-21T16:25:35.637Z,49.64
2023-02-21T16:28:13.022Z,49.47
2023-02-21T16:30:41.126Z,49.44
2023-02-21T16:33:13.974Z,49.62
2023-02-21T16:35:43.231Z,49.68
2023-02-21T16:38:17.226Z,49.46
2023-02-21T16:40:45.600Z,49.57
2023-02-21T16:43:22.909Z,49.68
2023-02-21T16:45:55.093Z,49.78
2023-02-21T16:48:28.670Z,49.92
2023-02-21T16:50:56.666Z,50.10
2023-02-21T16:53:24.703Z,49.90
2023-02-21T16:55:52.704Z,50.34
2023-02-21T16:58:42.415Z,50.29
2023-02-21T17:01:17.826Z,50.37
2023-02-21T17:03:46.260Z,50.62
2023-02-21T17:06:22.312Z,50.52
2023-02-21T17:08:51.461Z,50.60
2023-02-21T17:11:20.120Z,50.64
2023-02-21T17:13:48.514Z,50.72
2023-02-21T17:16:16.971Z,50.43
2023-02-21T17:18:45.674Z,50.61
2023-02-21T17:21:14.645Z,50.70
2023-02-21T17:23:43.257Z,50.57
2023-02-21T17:26:12.535Z,50.79
2023-02-21T17:28:40.630Z,50.94
2023-02-21T17:31:08.946Z,50.68
2023-02-21T17:33:37.176Z,50.92
2023-02-21T17:36:06.176Z,50.93
2023-02-21T17:38:34.380Z,50.81
2023-02-21T17:41:02.617Z,50.83
2023-02-21T17:43:31.151Z,50.95
2023-02-21T17:45:59.371Z,51.21
2023-02-21T17:48:27.354Z,51.09
2023-02-21T17:50:55.510Z,50.84
2023-02-21T17:53:23.551Z,51.20
2023-02-21T17:55:51.663Z,51.42
2023-02-21T17:58:19.736Z,51.24
2023-02-21T18:00:48.086Z,51.31
2023-02-21T18:03:16.175Z,51.45
2023-02-21T18:05:44.357Z,51.48
2023-02-21T18:08:12.535Z,51.90
2023-02-21T18:10:46.038Z,51.69
2023-02-21T18:13:19.910Z,52.09
2023-02-21T18:15:48.129Z,52.13
2023-02-21T18:18:16.188Z,52.26
2023-02-21T18:20:46.116Z,52.53
2023-02-21T18:23:15.604Z,52.55
2023-02-21T18:25:44.712Z,52.51
2023-02-21T18:28:12.697Z,52.56
2023-02-21T18:30:41.838Z,52.60
2023-02-21T18:33:10.020Z,52.80
2023-02-21T18:35:38.038Z,52.66
2023-02-21T18:38:06.091Z,52.97
2023-02-21T18:40:34.414Z,52.96
2023-02-21T18:43:06.328Z,53.02
2023-02-21T18:45:34.605Z,52.75
2023-02-21T18:48:03.397Z,52.98
2023-02-21T18:50:31.442Z,52.92
2023-02-21T18:53:02.400Z,53.00
2023-02-21T18:55:31.006Z,53.18
2023-02-21T18:58:00.189Z,53.34
2023-02-21T19:00:29.283Z,53.45
2023-02-21T19:02:57.371Z,53.47
2023-02-21T19:05:26.033Z,53.43
2023-02-21T19:07:54.320Z,53.76
2023-02-21T19:10:24.266Z,53.61
2023-02-21T19:12:52.909Z,53.55
2023-02-21T19:15:21.808Z,53.70
2023-02-21T19:17:50.193Z,53.81
2023-02-21T19:20:20.012Z,53.80
2023-02-21T19:22:48.166Z,53.91
2023-02-21T19:25:17.572Z,53.96
2023-02-21T19:27:45.911Z,54.14
2023-02-21T19:30:14.768Z,54.10
2023-02-21T19:32:42.793Z,53.96
2023-02-21T19:35:11.200Z,54.22
2023-02-21T19:37:39.150Z,54.50
2023-02-21T19:40:08.225Z,54.21
2023-02-21T19:42:36.232Z,54.26
2023-02-21T19:45:05.174Z,54.42
2023-02-21T19:47:34.331Z,54.48
2023-02-21T19:50:02.456Z,54.28
2023-02-21T19:52:30.565Z,54.48
2023-02-21T19:54:58.531Z,54.50
2023-02-21T19:57:26.811Z,54.64
2023-02-21T19:59:54.882Z,54.76
2023-02-21T20:02:23.052Z,54.96
2023-02-21T20:04:51.773Z,55.12
2023-02-21T20:07:20.717Z,55.24
2023-02-21T20:09:48.802Z,55.09
2023-02-21T20:12:22.918Z,55.28
2023-02-21T20:14:51.331Z,55.23
2023-02-21T20:17:20.915Z,55.27
2023-02-21T20:19:49.188Z,55.10
2023-02-21T20:22:17.667Z,55.03
2023-02-21T20:24:45.905Z,55.34
2023-02-21T20:27:15.919Z,55.37
2023-02-21T20:29:43.877Z,55.10
2023-02-21T20:32:11.964Z,55.59
2023-02-21T20:34:39.968Z,55.45
2023-02-21T20:37:09.067Z,55.25
2023-02-21T20:39:37.030Z,55.45
2023-02-21T20:42:08.503Z,55.36
2023-02-21T20:44:38.435Z,55.45
2023-02-21T20:47:07.289Z,55.63
2023-02-21T20:49:36.939Z,55.51
2023-02-21T20:52:06.065Z,55.51
2023-02-21T20:54:34.124Z,55.47
2023-02-21T20:57:02.755Z,55.46
2023-02-21T20:59:34.288Z,55.40
2023-02-21T21:02:04.345Z,55.58
2023-02-21T21:04:35.930Z,55.73
2023-02-21T21:07:07.754Z,55.64
2023-02-21T21:09:37.651Z,55.77
2023-02-21T21:12:11.524Z,55.93
2023-02-21T21:14:45.583Z,55.88
2023-02-21T21:17:16.419Z,56.10
2023-02-21T21:19:46.580Z,55.99
2023-02-21T21:22:18.541Z,56.08
2023-02-21T21:24:46.932Z,56.23
2023-02-21T21:27:15.589Z,56.16
2023-02-21T21:29:45.574Z,56.20
2023-02-21T21:32:17.326Z,56.10
2023-02-21T21:34:56.593Z,56.13
2023-02-21T21:37:27.229Z,56.03
2023-02-21T21:39:56.128Z,56.26
2023-02-21T21:42:26.732Z,56.59
2023-02-21T21:44:56.462Z,56.37
2023-02-21T21:47:34.133Z,56.23
2023-02-21T21:50:05.036Z,56.69
2023-02-21T21:52:33.169Z,56.73
2023-02-21T21:55:02.348Z,56.77
2023-02-21T21:57:30.621Z,56.89
2023-02-21T21:59:58.683Z,56.89
2023-02-21T22:02:26.684Z,56.85
2023-02-21T22:04:55.052Z,57.41
2023-02-21T22:07:23.120Z,57.44
2023-02-21T22:09:51.175Z,57.53
2023-02-21T22:12:19.257Z,57.46
2023-02-21T22:14:49.949Z,57.75
2023-02-21T22:17:18.991Z,57.57
2023-02-21T22:19:47.658Z,57.74
2023-02-21T22:22:16.254Z,57.68
2023-02-21T22:24:44.248Z,58.10
2023-02-21T22:27:12.435Z,57.84
2023-02-21T22:29:41.586Z,57.75
2023-02-21T22:32:10.432Z,57.87
2023-02-21T22:34:38.450Z,58.16
2023-02-21T22:37:06.429Z,58.11
2023-02-21T22:39:34.376Z,58.02
2023-02-21T22:42:05.530Z,58.45
2023-02-21T22:44:33.376Z,58.18
2023-02-21T22:47:01.332Z,58.43
2023-02-21T22:49:30.821Z,58.47
2023-02-21T22:51:58.941Z,58.45
2023-02-21T22:54:27.116Z,58.72
2023-02-21T22:57:01.084Z,58.61
2023-02-21T22:59:29.405Z,58.44
2023-02-21T23:02:00.039Z,58.79
2023-02-21T23:04:28.349Z,58.52
2023-02-21T23:07:00.295Z,58.39
2023-02-21T23:09:30.628Z,58.55
2023-02-21T23:12:00.543Z,58.34
2023-02-21T23:14:34.946Z,58.43
2023-02-21T23:17:03.420Z,58.34
2023-02-21T23:19:32.424Z,58.83
2023-02-21T23:22:00.694Z,58.77
2023-02-21T23:24:28.860Z,58.87
2023-02-21T23:26:56.953Z,59.42
2023-02-21T23:29:26.480Z,59.23
2023-02-21T23:32:09.769Z,59.05
2023-02-21T23:34:41.442Z,59.11
2023-02-21T23:37:12.707Z,59.48
2023-02-21T23:39:42.602Z,59.49
2023-02-21T23:42:11.334Z,59.79
2023-02-21T23:44:39.789Z,59.88
2023-02-21T23:47:08.650Z,59.89
2023-02-21T23:49:44.345Z,59.97
2023-02-21T23:52:12.783Z,60.23
2023-02-21T23:54:41.082Z,60.20
2023-02-21T23:57:09.227Z,60.34
2023-02-21T23:59:37.476Z,60.13
